Time;durP1;ratioP1;P1;durP2;ratioP2;P2;SDS_P1;SDS_P2;PMS_P1;PMS_P2;Temp;Humidity;BMP_temperature;BMP_pressure;BME280_temperature;BME280_humidity;BME280_pressure;Samples;Min_cycle;Max_cycle;Signal;HPM_P1;HPM_P2
2021/07/09 00:02:11;;;;;;;14.70;9.85;;;;;;;19.42;66.98;102078.50;5072665;28;20045;-50
2021/07/09 00:04:39;;;;;;;19.15;10.02;;;;;;;19.41;67.05;102078.78;5072871;28;20115;-50
2021/07/09 00:07:06;;;;;;;13.93;9.82;;;;;;;19.42;67.08;102072.97;5072770;28;20115;-51
2021/07/09 00:09:34;;;;;;;16.70;10.90;;;;;;;19.37;67.07;102064.75;5072578;28;20082;-53
2021/07/09 00:12:03;;;;;;;13.80;10.15;;;;;;;19.34;66.86;102070.88;5072817;28;20541;-49
2021/07/09 00:14:33;;;;;;;16.27;10.70;;;;;;;19.23;66.60;102070.19;5054691;28;20107;-53
2021/07/09 00:17:01;;;;;;;13.75;10.32;;;;;;;19.12;67.02;102075.03;5072337;28;20041;-49
2021/07/09 00:19:29;;;;;;;16.77;10.48;;;;;;;19.07;67.11;102085.31;5072359;28;20064;-50
2021/07/09 00:21:59;;;;;;;13.60;10.25;;;;;;;19.07;67.08;102085.31;5072624;28;20041;-48
2021/07/09 00:24:27;;;;;;;14.65;10.60;;;;;;;19.08;67.12;102082.25;5072668;28;20072;-50
2021/07/09 00:26:55;;;;;;;14.77;9.43;;;;;;;19.08;67.25;102076.72;5072823;28;20907;-53
2021/07/09 00:29:23;;;;;;;15.20;10.18;;;;;;;19.09;66.90;102075.59;5072347;28;20047;-52
2021/07/09 00:31:51;;;;;;;15.30;10.23;;;;;;;19.08;67.19;102073.97;5072475;28;20549;-55
2021/07/09 00:34:20;;;;;;;16.27;10.38;;;;;;;19.09;66.71;102072.84;5054575;28;20041;-51
2021/07/09 00:36:48;;;;;;;13.80;10.80;;;;;;;19.07;66.51;102077.84;5071720;28;20044;-48
2021/07/09 00:39:15;;;;;;;13.95;9.98;;;;;;;19.04;66.47;102078.44;5054776;28;20179;-51
2021/07/09 00:41:43;;;;;;;12.68;9.13;;;;;;;19.04;66.73;102070.13;5072310;28;20071;-51
2021/07/09 00:44:12;;;;;;;13.77;9.90;;;;;;;19.08;66.41;102067.63;5071814;28;20127;-51
2021/07/09 00:46:40;;;;;;;15.10;9.85;;;;;;;19.07;66.55;102065.97;5054211;28;20049;-49
2021/07/09 00:49:09;;;;;;;15.73;10.00;;;;;;;19.03;66.54;102065.75;5072042;28;20051;-48
2021/07/09 00:51:37;;;;;;;14.65;10.35;;;;;;;19.03;66.51;102071.28;5071930;28;20041;-47
2021/07/09 00:54:05;;;;;;;15.23;10.05;;;;;;;19.06;66.35;102076.19;5072295;28;20037;-50
2021/07/09 00:56:34;;;;;;;17.25;9.82;;;;;;;19.10;66.66;102074.50;5072064;28;20049;-51
2021/07/09 00:59:03;;;;;;;14.18;10.00;;;;;;;19.13;65.72;102079.44;5071230;28;20059;-52
2021/07/09 01:01:31;;;;;;;14.02;9.88;;;;;;;19.11;65.78;102081.66;5072120;28;20047;-53
2021/07/09 01:03:59;;;;;;;15.30;9.82;;;;;;;19.09;65.66;102083.06;5071954;28;20044;-51
2021/07/09 01:06:27;;;;;;;16.75;9.10;;;;;;;19.11;65.67;102089.13;5072099;28;20044;-50
2021/07/09 01:08:54;;;;;;;15.25;9.90;;;;;;;19.14;65.75;102083.00;5071961;28;20067;-53
2021/07/09 01:11:24;;;;;;;16.52;9.43;;;;;;;19.16;65.32;102091.81;5072042;28;20049;-51
2021/07/09 01:13:52;;;;;;;12.80;9.18;;;;;;;19.15;64.88;102091.00;5054055;28;20059;-52
2021/07/09 01:16:20;;;;;;;14.20;9.40;;;;;;;19.14;64.83;102089.34;5071686;28;20075;-52
2021/07/09 01:18:47;;;;;;;13.77;9.40;;;;;;;19.11;64.96;102092.72;5071679;28;20059;-50
2021/07/09 01:21:15;;;;;;;14.68;9.98;;;;;;;19.09;65.14;102085.84;5071834;28;20045;-50
2021/07/09 01:23:43;;;;;;;13.57;9.38;;;;;;;19.05;65.23;102080.09;5072170;28;20052;-48
2021/07/09 01:26:11;;;;;;;13.80;9.43;;;;;;;19.03;65.20;102082.31;5071747;28;20479;-50
2021/07/09 01:28:40;;;;;;;14.32;10.13;;;;;;;19.01;65.39;102083.72;5071675;28;20398;-51
2021/07/09 01:31:08;;;;;;;13.30;9.38;;;;;;;18.96;65.27;102081.03;5071674;28;20048;-47
2021/07/09 01:33:36;;;;;;;13.68;9.45;;;;;;;18.91;65.33;102079.16;5071582;28;20040;-51
2021/07/09 01:36:04;;;;;;;15.25;9.35;;;;;;;18.91;65.50;102079.97;5054098;28;20406;-50
2021/07/09 01:38:32;;;;;;;14.23;9.55;;;;;;;18.94;65.39;102084.09;5072059;28;20076;-48
2021/07/09 01:41:00;;;;;;;11.82;9.38;;;;;;;18.93;65.14;102083.25;5071773;28;20032;-51
2021/07/09 01:43:27;;;;;;;14.10;9.23;;;;;;;18.95;65.04;102080.19;5071347;28;20044;-49
2021/07/09 01:45:55;;;;;;;14.45;9.73;;;;;;;18.94;65.26;102076.59;5053713;28;20048;-50
2021/07/09 01:48:23;;;;;;;13.85;9.60;;;;;;;18.96;65.13;102070.00;5073577;28;20048;-50
2021/07/09 01:50:51;;;;;;;13.23;9.20;;;;;;;18.96;65.06;102075.50;5075679;28;20048;-50
2021/07/09 01:53:18;;;;;;;14.00;9.68;;;;;;;18.95;64.82;102080.19;5057423;28;20124;-49
2021/07/09 01:55:46;;;;;;;12.98;9.43;;;;;;;18.89;65.09;102070.34;5074998;28;20044;-49
2021/07/09 01:58:13;;;;;;;12.27;8.57;;;;;;;18.87;65.02;102078.91;5075332;28;20514;-48
2021/07/09 02:00:41;;;;;;;15.43;9.57;;;;;;;18.87;65.06;102072.56;5074986;28;20056;-48
2021/07/09 02:03:09;;;;;;;14.65;9.27;;;;;;;18.85;65.07;102066.50;5075321;28;20036;-49
2021/07/09 02:05:37;;;;;;;13.52;9.45;;;;;;;18.82;65.17;102070.69;5075180;28;20053;-48
2021/07/09 02:08:06;;;;;;;14.18;9.30;;;;;;;18.81;64.90;102073.72;5075193;28;20517;-52
2021/07/09 02:10:37;;;;;;;13.13;9.30;;;;;;;18.80;64.84;102072.09;5074948;28;20041;-50
2021/07/09 02:13:05;;;;;;;13.65;9.32;;;;;;;18.78;64.79;102064.09;5074808;28;20044;-50
2021/07/09 02:15:40;;;;;;;12.70;9.70;;;;;;;18.78;64.67;102063.28;5075062;28;20052;-50
2021/07/09 02:18:08;;;;;;;14.40;10.45;;;;;;;18.77;64.80;102061.63;5075038;28;20076;-51
2021/07/09 02:20:36;;;;;;;13.25;9.30;;;;;;;18.74;64.93;102068.53;5075363;28;20056;-55
2021/07/09 02:23:09;;;;;;;13.45;9.43;;;;;;;18.73;64.71;102064.13;5075231;28;20063;-54
2021/07/09 02:25:38;;;;;;;15.93;10.00;;;;;;;18.71;64.62;102071.88;5074877;28;20079;-55
2021/07/09 02:28:05;;;;;;;12.80;9.23;;;;;;;18.65;64.73;102064.78;5055492;28;20148;-55
2021/07/09 02:30:33;;;;;;;12.98;9.75;;;;;;;18.62;64.70;102068.13;5075183;28;20044;-54
2021/07/09 02:33:03;;;;;;;14.52;10.07;;;;;;;18.59;64.52;102061.25;5074806;28;20047;-53
2021/07/09 02:35:33;;;;;;;13.68;9.93;;;;;;;18.55;64.51;102068.47;5074774;28;20041;-51
2021/07/09 02:38:01;;;;;;;14.57;9.05;;;;;;;18.53;64.71;102065.16;5074431;28;20042;-54
2021/07/09 02:40:30;;;;;;;17.88;10.65;;;;;;;18.53;64.61;102071.50;5074153;28;20585;-53
2021/07/09 02:43:00;;;;;;;16.55;10.02;;;;;;;18.54;64.66;102069.56;5074239;28;20523;-52
2021/07/09 02:45:28;;;;;;;12.98;9.07;;;;;;;18.54;64.61;102069.56;5074300;28;20059;-52
2021/07/09 02:48:14;;;;;;;16.05;9.65;;;;;;;18.55;64.74;102064.88;5074407;28;20041;-52
2021/07/09 02:50:42;;;;;;;16.45;10.57;;;;;;;18.57;64.66;102069.00;5074653;28;20036;-53
2021/07/09 02:53:10;;;;;;;14.20;9.77;;;;;;;18.56;64.68;102067.34;5074503;28;20044;-55
2021/07/09 02:55:37;;;;;;;12.90;9.18;;;;;;;18.55;64.67;102065.69;5073914;28;20055;-54
2021/07/09 02:58:05;;;;;;;16.08;10.07;;;;;;;18.57;64.84;102051.59;5074099;28;20041;-53
2021/07/09 03:00:32;;;;;;;12.65;9.45;;;;;;;18.58;64.71;102065.09;5073167;28;20053;-54
2021/07/09 03:03:01;;;;;;;13.65;9.65;;;;;;;18.58;64.39;102064.28;5074164;28;20040;-49
2021/07/09 03:05:28;;;;;;;14.30;9.63;;;;;;;18.56;64.79;102072.84;5060378;28;20048;-49
2021/07/09 03:07:56;;;;;;;14.20;9.73;;;;;;;18.53;64.57;102067.91;5074315;28;20070;-52
2021/07/09 03:10:23;;;;;;;14.95;10.35;;;;;;;18.49;64.94;102073.19;5073595;28;20047;-54
2021/07/09 03:12:51;;;;;;;16.30;10.07;;;;;;;18.42;65.35;102074.66;5074327;28;20049;-55
2021/07/09 03:15:18;;;;;;;15.32;9.95;;;;;;;18.35;65.63;102072.25;5055930;28;20044;-51
2021/07/09 03:17:47;;;;;;;14.75;10.43;;;;;;;18.30;65.92;102069.50;5073829;28;20044;-54
2021/07/09 03:20:15;;;;;;;16.70;11.55;;;;;;;18.24;65.87;102065.97;5073911;28;20040;-50
2021/07/09 03:22:42;;;;;;;13.88;10.57;;;;;;;18.20;66.11;102059.38;5073796;28;20390;-48
2021/07/09 03:25:12;;;;;;;15.90;10.48;;;;;;;18.17;66.26;102064.69;5055417;28;20067;-50
2021/07/09 03:27:40;;;;;;;18.40;11.10;;;;;;;18.16;66.49;102074.91;5073911;28;20040;-52
2021/07/09 03:30:08;;;;;;;18.73;10.95;;;;;;;18.14;66.59;102066.06;5073930;28;20131;-49
2021/07/09 03:32:36;;;;;;;15.98;11.13;;;;;;;18.13;66.40;102069.94;5073535;28;20036;-49
2021/07/09 03:35:05;;;;;;;17.08;11.27;;;;;;;18.09;66.61;102074.41;5055993;28;20056;-50
2021/07/09 03:37:33;;;;;;;16.92;11.02;;;;;;;18.09;66.66;102071.63;5072915;28;20119;-49
2021/07/09 03:40:01;;;;;;;16.55;11.35;;;;;;;18.09;66.37;102068.88;5073441;28;20051;-49
2021/07/09 03:42:28;;;;;;;15.30;11.50;;;;;;;18.10;66.32;102073.28;5073351;28;20046;-50
2021/07/09 03:44:56;;;;;;;17.08;11.50;;;;;;;18.09;66.11;102066.13;5073316;28;20037;-53
2021/07/09 03:47:23;;;;;;;14.85;11.23;;;;;;;18.07;66.08;102066.41;5073610;28;20044;-56
2021/07/09 03:49:51;;;;;;;17.70;11.07;;;;;;;18.03;66.16;102070.03;5073240;28;20040;-56
2021/07/09 03:52:18;;;;;;;18.77;11.85;;;;;;;17.97;66.23;102065.66;5055385;28;20051;-53
2021/07/09 03:54:46;;;;;;;16.23;11.25;;;;;;;17.93;66.40;102065.41;5073083;28;20037;-55
2021/07/09 03:57:14;;;;;;;19.85;11.55;;;;;;;17.93;66.38;102061.84;5072784;28;20057;-55
2021/07/09 03:59:42;;;;;;;14.82;10.82;;;;;;;17.90;66.47;102066.00;5072758;28;20522;-55
2021/07/09 04:02:09;;;;;;;16.23;10.80;;;;;;;17.90;66.72;102065.19;5073298;28;20387;-52
2021/07/09 04:04:37;;;;;;;15.48;11.63;;;;;;;17.90;66.72;102059.66;5072875;28;20048;-49
2021/07/09 04:07:05;;;;;;;20.40;11.85;;;;;;;17.86;66.69;102060.22;5072536;28;20459;-56
2021/07/09 04:09:32;;;;;;;17.25;11.32;;;;;;;17.84;66.71;102067.94;5055066;28;20040;-54
2021/07/09 04:12:00;;;;;;;21.20;12.27;;;;;;;17.81;66.88;102068.53;5072728;28;20517;-50
2021/07/09 04:14:27;;;;;;;17.63;12.02;;;;;;;17.80;67.01;102069.66;5072823;28;20406;-50
2021/07/09 04:16:55;;;;;;;17.52;11.15;;;;;;;17.78;66.84;102071.84;5072636;28;20041;-51
2021/07/09 04:19:22;;;;;;;16.33;12.00;;;;;;;17.79;67.09;102078.97;5072652;28;20045;-49
2021/07/09 04:21:50;;;;;;;18.48;12.68;;;;;;;17.77;66.97;102078.44;5072355;28;20395;-52
2021/07/09 04:24:18;;;;;;;17.73;11.98;;;;;;;17.76;66.97;102065.78;5055001;28;20056;-53
2021/07/09 04:26:45;;;;;;;18.45;12.35;;;;;;;17.76;67.20;102070.47;5072651;28;20445;-51
2021/07/09 04:29:13;;;;;;;17.52;12.38;;;;;;;17.76;67.12;102065.78;5072558;28;20519;-50
2021/07/09 04:31:40;;;;;;;18.42;12.45;;;;;;;17.78;67.19;102065.50;5072321;28;20048;-53
2021/07/09 04:34:08;;;;;;;16.77;12.50;;;;;;;17.80;67.23;102077.91;5072530;28;20101;-54
2021/07/09 04:36:35;;;;;;;17.15;11.95;;;;;;;17.82;67.22;102074.84;5072123;28;20044;-52
2021/07/09 04:39:03;;;;;;;19.50;12.98;;;;;;;17.83;67.14;102077.34;5072327;28;20040;-52
2021/07/09 04:41:31;;;;;;;17.60;12.20;;;;;;;17.86;67.15;102082.28;5072613;28;20044;-49
2021/07/09 04:43:59;;;;;;;18.08;12.10;;;;;;;17.90;66.97;102079.78;5072203;28;20053;-51
2021/07/09 04:46:26;;;;;;;19.02;13.02;;;;;;;17.91;66.97;102083.34;5072271;28;20044;-51
2021/07/09 04:48:54;;;;;;;18.45;12.90;;;;;;;17.92;66.94;102077.56;5072369;28;20075;-52
2021/07/09 04:51:21;;;;;;;17.15;12.52;;;;;;;17.96;67.04;102077.78;5071650;28;20044;-47
2021/07/09 04:53:49;;;;;;;17.42;12.63;;;;;;;17.94;66.90;102077.25;5072195;28;20097;-50
2021/07/09 04:56:16;;;;;;;21.33;14.65;;;;;;;17.87;66.90;102075.66;5071753;28;20036;-50
2021/07/09 04:58:44;;;;;;;20.23;14.30;;;;;;;17.81;67.44;102076.78;5063298;28;20041;-52
2021/07/09 05:01:12;;;;;;;21.50;14.73;;;;;;;17.80;67.63;102072.41;5070453;28;20035;-50
2021/07/09 05:03:39;;;;;;;20.75;15.23;;;;;;;17.79;67.72;102078.16;5071542;28;20041;-53
2021/07/09 05:06:07;;;;;;;18.45;14.60;;;;;;;17.76;67.71;102082.31;5071060;28;20505;-49
2021/07/09 05:08:34;;;;;;;23.00;16.20;;;;;;;17.74;67.88;102072.69;5071473;28;20056;-52
2021/07/09 05:11:03;;;;;;;20.55;14.85;;;;;;;17.73;68.03;102073.81;5053889;28;20087;-51
2021/07/09 05:13:31;;;;;;;23.90;16.95;;;;;;;17.69;68.21;102070.78;5071586;28;20044;-51
2021/07/09 05:16:00;;;;;;;21.75;14.40;;;;;;;17.66;68.30;102079.63;5071440;28;20143;-53
2021/07/09 05:18:28;;;;;;;21.38;15.68;;;;;;;17.69;68.46;102076.28;5071532;28;20056;-52
2021/07/09 05:20:55;;;;;;;20.88;14.55;;;;;;;17.71;68.43;102074.09;5053538;28;20036;-49
2021/07/09 05:23:23;;;;;;;21.52;14.82;;;;;;;17.74;68.38;102079.03;5073816;28;20044;-53
2021/07/09 05:25:51;;;;;;;22.33;14.85;;;;;;;17.74;68.43;102078.19;5075839;28;20045;-51
2021/07/09 05:28:18;;;;;;;21.50;15.77;;;;;;;17.75;68.43;102080.69;5075079;28;20060;-51
2021/07/09 05:30:47;;;;;;;26.30;16.52;;;;;;;17.78;68.28;102080.09;5075242;28;20462;-51
2021/07/09 05:33:16;;;;;;;21.02;15.40;;;;;;;17.80;68.38;102086.19;5075638;28;20040;-52
2021/07/09 05:35:44;;;;;;;22.02;14.48;;;;;;;17.82;68.18;102085.88;5073706;28;20032;-52
2021/07/09 05:38:12;;;;;;;20.25;14.95;;;;;;;17.84;68.11;102084.47;4364442;28;10000574;-51
2021/07/09 05:40:40;;;;;;;19.65;15.32;;;;;;;17.87;67.98;102080.34;5073391;28;20071;-52
2021/07/09 05:43:07;;;;;;;18.20;13.45;;;;;;;17.89;67.74;102086.38;5073333;28;20032;-50
2021/07/09 05:45:35;;;;;;;20.88;14.55;;;;;;;17.91;67.97;102086.13;5072974;28;20055;-50
2021/07/09 05:48:04;;;;;;;19.77;15.13;;;;;;;17.84;67.68;102081.72;5072375;28;20063;-54
2021/07/09 05:50:31;;;;;;;21.65;14.30;;;;;;;17.74;67.97;102084.53;5073003;28;20061;-51
2021/07/09 05:52:59;;;;;;;24.65;15.43;;;;;;;17.74;68.25;102094.75;5073258;28;20063;-51
2021/07/09 05:55:26;;;;;;;20.95;15.02;;;;;;;17.69;68.01;102095.59;5073124;28;20403;-49
2021/07/09 05:57:54;;;;;;;22.67;14.95;;;;;;;17.67;68.10;102097.81;5072031;28;20052;-52
2021/07/09 06:00:21;;;;;;;21.80;14.25;;;;;;;17.66;67.76;102087.91;5072349;28;20087;-52
2021/07/09 06:02:49;;;;;;;20.45;14.68;;;;;;;17.73;68.01;102093.91;5072628;28;20051;-51
2021/07/09 06:05:17;;;;;;;18.83;13.52;;;;;;;17.73;67.68;102093.91;5072814;28;20464;-52
2021/07/09 06:07:44;;;;;;;35.05;13.40;;;;;;;17.75;67.92;102091.72;5072751;28;20036;-51
2021/07/09 06:10:12;;;;;;;20.45;14.23;;;;;;;17.81;68.11;102089.75;5072713;28;20037;-54
2021/07/09 06:12:40;;;;;;;21.20;14.25;;;;;;;17.85;68.02;102097.19;5072514;28;20045;-53
2021/07/09 06:15:08;;;;;;;20.52;13.05;;;;;;;17.82;67.56;102089.50;5072344;28;20048;-53
2021/07/09 06:17:36;;;;;;;22.25;14.40;;;;;;;17.82;67.75;102081.22;5071879;28;20517;-55
2021/07/09 06:20:05;;;;;;;22.88;14.45;;;;;;;17.82;67.60;102085.88;5072288;28;20106;-53
2021/07/09 06:22:33;;;;;;;19.92;14.40;;;;;;;17.80;67.62;102093.63;5071525;28;20045;-52
2021/07/09 06:25:00;;;;;;;22.40;12.85;;;;;;;17.82;67.93;102089.50;5072820;28;20114;-49
2021/07/09 06:27:28;;;;;;;20.58;12.60;;;;;;;17.90;67.98;102092.75;5072065;28;20048;-53
2021/07/09 06:29:55;;;;;;;22.70;14.35;;;;;;;17.93;67.65;102089.41;5072303;28;20103;-50
2021/07/09 06:32:23;;;;;;;21.15;13.55;;;;;;;17.97;67.37;102093.25;5072093;28;20048;-51
2021/07/09 06:34:50;;;;;;;18.75;13.73;;;;;;;17.98;67.43;102095.69;5070872;28;20040;-50
2021/07/09 06:37:18;;;;;;;22.38;14.85;;;;;;;17.99;67.30;102096.53;5071266;28;20044;-49
2021/07/09 06:39:45;;;;;;;21.58;14.25;;;;;;;18.00;67.28;102095.44;5072248;28;20041;-51
2021/07/09 06:42:13;;;;;;;18.83;14.07;;;;;;;17.99;67.45;102096.53;5072115;28;20410;-51
2021/07/09 06:44:41;;;;;;;21.25;13.55;;;;;;;18.00;66.97;102106.47;5071815;28;20384;-50
2021/07/09 06:47:08;;;;;;;18.38;13.50;;;;;;;18.04;67.47;102107.53;5071749;28;20095;-50
2021/07/09 06:49:36;;;;;;;17.27;12.30;;;;;;;18.03;65.80;102103.13;5071662;28;20044;-50
2021/07/09 06:52:04;;;;;;;15.73;11.48;;;;;;;18.03;67.02;102097.59;5072053;28;20049;-51
2021/07/09 06:54:32;;;;;;;16.48;10.85;;;;;;;18.09;65.79;102100.03;5054029;28;20036;-52
2021/07/09 06:57:00;;;;;;;17.60;10.73;;;;;;;18.18;65.92;102102.16;5071837;28;20040;-50
2021/07/09 06:59:27;;;;;;;17.60;11.27;;;;;;;18.22;65.74;102104.06;5071261;28;20056;-51
2021/07/09 07:01:56;;;;;;;14.77;10.48;;;;;;;18.24;66.10;102099.09;5071173;28;20051;-52
2021/07/09 07:04:25;;;;;;;18.40;12.02;;;;;;;18.30;65.78;102111.75;5071596;28;20047;-51
2021/07/09 07:06:52;;;;;;;17.80;11.95;;;;;;;18.28;65.39;102108.44;5071882;28;20447;-51
2021/07/09 07:09:21;;;;;;;17.10;11.65;;;;;;;18.24;65.84;102109.31;5071816;28;20067;-50
2021/07/09 07:11:49;;;;;;;18.33;10.88;;;;;;;18.28;66.42;102113.16;5071378;28;20090;-51
2021/07/09 07:14:17;;;;;;;14.10;10.68;;;;;;;18.34;65.62;102108.41;5053857;28;20048;-50
2021/07/09 07:16:44;;;;;;;15.38;10.48;;;;;;;18.34;65.30;102111.16;5071394;28;20044;-52
2021/07/09 07:19:12;;;;;;;18.15;11.15;;;;;;;18.37;65.65;102113.31;5071298;28;20075;-48
2021/07/09 07:21:39;;;;;;;14.38;10.48;;;;;;;18.31;64.71;102105.09;5071390;28;20060;-50
2021/07/09 07:24:07;;;;;;;15.13;9.80;;;;;;;18.30;65.44;102117.25;5070903;28;20037;-48
2021/07/09 07:26:35;;;;;;;16.92;9.02;;;;;;;18.40;65.42;102107.22;5071495;28;20047;-49
2021/07/09 07:29:02;;;;;;;21.60;9.73;;;;;;;18.43;64.70;102107.47;5062976;28;20056;-49
2021/07/09 07:31:30;;;;;;;16.63;9.65;;;;;;;18.45;64.97;102110.78;5071411;28;20040;-49
2021/07/09 07:33:58;;;;;;;14.55;10.32;;;;;;;18.44;64.87;102108.31;5071271;28;20039;-52
2021/07/09 07:36:25;;;;;;;13.32;9.18;;;;;;;18.44;65.16;102102.78;5073178;28;20407;-52
2021/07/09 07:38:53;;;;;;;14.88;10.48;;;;;;;18.46;65.52;102108.84;5073042;28;20036;-50
2021/07/09 07:41:22;;;;;;;14.77;9.60;;;;;;;18.46;65.31;102111.59;5073180;28;20495;-51
2021/07/09 07:43:49;;;;;;;14.85;9.55;;;;;;;18.56;64.95;102110.69;5055468;28;20433;-50
2021/07/09 07:46:17;;;;;;;15.35;9.13;;;;;;;18.58;65.08;102097.41;5071306;28;20083;-50
2021/07/09 07:48:45;;;;;;;15.30;9.65;;;;;;;18.60;64.86;102101.53;5059454;28;20098;-48
2021/07/09 07:51:12;;;;;;;15.45;9.90;;;;;;;18.58;64.56;102109.28;5057572;28;20039;-50
2021/07/09 07:53:41;;;;;;;15.27;9.30;;;;;;;18.58;64.91;102098.22;5055168;28;20052;-50
2021/07/09 07:56:09;;;;;;;13.93;9.25;;;;;;;18.62;64.63;102102.06;5054752;28;20045;-48
2021/07/09 07:58:37;;;;;;;14.05;8.48;;;;;;;18.67;64.49;102112.25;5053709;28;20049;-48
2021/07/09 08:01:05;;;;;;;14.70;8.10;;;;;;;18.70;62.82;102097.84;5071341;28;20056;-49
2021/07/09 08:03:34;;;;;;;12.88;7.95;;;;;;;18.71;63.28;102097.56;5079851;28;20072;-49
2021/07/09 08:06:03;;;;;;;11.05;7.03;;;;;;;18.74;62.69;102096.97;5072791;28;20048;-50
2021/07/09 08:08:31;;;;;;;12.88;7.55;;;;;;;18.78;62.78;102107.44;5066294;28;20059;-49
2021/07/09 08:10:59;;;;;;;12.30;7.03;;;;;;;18.83;62.53;102107.41;5072534;28;20041;-49
2021/07/09 08:13:26;;;;;;;10.20;6.72;;;;;;;18.85;62.44;102117.03;5054440;28;20059;-50
2021/07/09 08:15:54;;;;;;;11.75;7.55;;;;;;;18.87;61.71;102114.00;5072060;28;20119;-51
2021/07/09 08:18:22;;;;;;;10.23;6.20;;;;;;;18.91;61.15;102115.88;5071834;28;20051;-51
2021/07/09 08:20:50;;;;;;;12.57;6.05;;;;;;;18.99;61.43;102108.88;5072220;28;20055;-51
2021/07/09 08:23:17;;;;;;;12.30;7.05;;;;;;;19.01;62.86;102109.41;5072345;28;20044;-49
2021/07/09 08:25:45;;;;;;;13.75;8.00;;;;;;;19.06;63.71;102100.25;5072476;28;20128;-49
2021/07/09 08:28:16;;;;;;;12.45;8.27;;;;;;;19.07;63.53;102108.25;5071241;28;20067;-52
2021/07/09 08:30:45;;;;;;;13.73;8.05;;;;;;;19.08;63.73;102101.59;5072361;28;20044;-50
2021/07/09 08:33:13;;;;;;;15.48;8.20;;;;;;;19.15;64.34;102101.25;5071893;28;20094;-53
2021/07/09 08:35:41;;;;;;;13.30;7.95;;;;;;;19.20;64.29;102094.84;5071727;28;20044;-51
2021/07/09 08:38:09;;;;;;;13.77;8.13;;;;;;;19.26;63.78;102096.41;5072046;28;20032;-50
2021/07/09 08:40:36;;;;;;;14.85;8.60;;;;;;;19.25;63.13;102094.78;5072229;28;20052;-55
2021/07/09 08:43:24;;;;;;;14.07;8.45;;;;;;;19.18;63.63;102103.41;5071553;28;20052;-55
2021/07/09 08:45:52;;;;;;;17.73;9.25;;;;;;;19.20;64.09;102097.59;5071677;28;20044;-54
2021/07/09 08:48:20;;;;;;;28.50;12.20;;;;;;;19.27;63.57;102093.34;5071357;28;20048;-54
2021/07/09 08:50:47;;;;;;;18.85;9.57;;;;;;;19.39;62.88;102101.22;5071583;28;20048;-52
2021/07/09 08:53:15;;;;;;;16.48;9.35;;;;;;;19.41;62.82;102090.69;5053994;28;20067;-50
2021/07/09 08:55:44;;;;;;;11.10;7.22;;;;;;;19.45;63.21;102083.44;5054210;28;20045;-54
2021/07/09 08:58:11;;;;;;;13.95;8.23;;;;;;;19.47;62.98;102077.63;5069962;28;20035;-55
2021/07/09 09:00:44;;;;;;;16.58;9.90;;;;;;;19.48;62.90;102082.00;5071993;28;20102;-53
2021/07/09 09:03:15;;;;;;;13.93;8.90;;;;;;;19.50;63.17;102083.34;5053837;28;20040;-49
2021/07/09 09:05:43;;;;;;;13.75;9.60;;;;;;;19.49;63.63;102083.66;5054543;28;20051;-48
2021/07/09 09:08:12;;;;;;;16.75;10.50;;;;;;;19.47;64.04;102086.72;5071477;28;20043;-49
2021/07/09 09:10:51;;;;;;;21.13;11.40;;;;;;;19.47;64.18;102097.78;5053466;28;20267;-47
2021/07/09 09:13:23;;;;;;;21.52;9.20;;;;;;;19.48;64.02;102077.31;5071144;28;20068;-51
2021/07/09 09:15:59;;;;;;;15.10;10.40;;;;;;;19.57;63.07;102083.00;5071317;28;20040;-50
2021/07/09 09:18:45;;;;;;;21.88;10.80;;;;;;;19.62;63.33;102090.41;5070863;28;20453;-50
2021/07/09 09:21:14;;;;;;;18.85;10.90;;;;;;;19.57;63.54;102086.56;5071495;28;20052;-49
2021/07/09 09:23:51;;;;;;;18.00;11.77;;;;;;;19.63;63.65;102081.81;5071527;28;20391;-56
2021/07/09 09:26:41;;;;;;;20.85;12.25;;;;;;;19.67;63.55;102085.59;5071229;28;20049;-54
2021/07/09 09:29:12;;;;;;;18.42;11.65;;;;;;;19.64;63.60;102074.34;5065166;28;20047;-54
2021/07/09 09:31:40;;;;;;;19.90;10.00;;;;;;;19.71;63.40;102074.81;5071933;28;20044;-53
2021/07/09 09:34:08;;;;;;;14.15;9.13;;;;;;;19.81;63.20;102071.06;5071655;28;20044;-49
2021/07/09 09:36:36;;;;;;;20.50;11.30;;;;;;;19.85;63.42;102070.16;5071925;28;20459;-52
2021/07/09 09:39:04;;;;;;;19.10;11.05;;;;;;;19.91;63.28;102070.91;5054005;28;20051;-49
2021/07/09 09:41:31;;;;;;;17.13;11.02;;;;;;;19.87;62.81;102069.88;5068320;28;20049;-50
2021/07/09 09:44:15;;;;;;;17.98;11.48;;;;;;;19.82;62.87;102068.00;5071521;28;20052;-55
2021/07/09 09:46:42;;;;;;;16.65;10.45;;;;;;;19.82;62.26;102064.41;5071438;28;20503;-53
2021/07/09 09:49:12;;;;;;;16.55;10.32;;;;;;;19.87;61.96;102067.13;5053274;28;20048;-51
2021/07/09 09:51:40;;;;;;;18.45;11.10;;;;;;;19.97;62.43;102073.28;5053892;28;20403;-48
2021/07/09 09:54:12;;;;;;;16.13;10.60;;;;;;;20.05;61.83;102057.94;5071351;28;20044;-49
2021/07/09 09:56:41;;;;;;;18.60;11.40;;;;;;;20.09;62.03;102060.94;5040145;28;20059;-49
2021/07/09 09:59:23;;;;;;;15.88;10.45;;;;;;;20.08;61.72;102062.06;5070854;28;20418;-49
2021/07/09 10:02:03;;;;;;;20.67;10.90;;;;;;;20.07;60.96;102061.25;5058464;28;20040;-51
2021/07/09 10:04:31;;;;;;;19.45;11.50;;;;;;;20.12;60.77;102060.34;5052989;28;20522;-49
2021/07/09 10:07:00;;;;;;;19.95;11.63;;;;;;;20.20;61.27;102060.47;5071046;28;20498;-52
2021/07/09 10:09:29;;;;;;;21.60;11.68;;;;;;;20.26;61.42;102063.16;5073559;28;20040;-52
2021/07/09 10:11:58;;;;;;;19.60;12.00;;;;;;;20.28;60.76;102058.94;5074911;28;20032;-53
2021/07/09 10:14:29;;;;;;;20.15;14.68;;;;;;;20.20;60.80;102066.00;5040340;28;20571;-52
2021/07/09 10:17:01;;;;;;;20.17;13.27;;;;;;;20.16;61.50;102055.84;5057324;28;20553;-51
2021/07/09 10:19:48;;;;;;;22.35;14.85;;;;;;;20.16;61.47;102056.66;5074876;28;20052;-50
2021/07/09 10:22:35;;;;;;;19.30;13.13;;;;;;;20.17;61.87;102055.53;5059841;28;20041;-51
2021/07/09 10:25:03;;;;;;;30.08;15.65;;;;;;;20.16;61.03;102064.16;5074265;28;20044;-52
2021/07/09 10:27:31;;;;;;;26.83;15.70;;;;;;;20.15;61.40;102054.19;5056378;28;20053;-51
2021/07/09 10:30:03;;;;;;;101.55;46.03;;;;;;;20.21;61.58;102056.56;5056941;28;20049;-52
2021/07/09 10:32:35;;;;;;;22.25;16.40;;;;;;;20.30;61.22;102050.31;5074755;28;20106;-50
2021/07/09 10:35:04;;;;;;;47.03;24.92;;;;;;;20.38;60.65;102049.63;5073965;28;20056;-52
2021/07/09 10:37:32;;;;;;;79.45;37.08;;;;;;;20.50;60.42;102043.63;5053214;28;20491;-51
2021/07/09 10:40:15;;;;;;;34.58;20.60;;;;;;;20.51;60.78;102054.38;5074435;28;20037;-50
2021/07/09 10:42:44;;;;;;;25.00;16.15;;;;;;;20.51;61.37;102054.38;5074508;28;20040;-53
2021/07/09 10:45:28;;;;;;;25.08;17.95;;;;;;;20.48;61.01;102043.91;5056232;28;20044;-49
2021/07/09 10:48:10;;;;;;;29.48;22.48;;;;;;;20.49;61.05;102044.72;5074100;28;20047;-52
2021/07/09 10:50:43;;;;;;;29.60;22.88;;;;;;;20.49;60.88;102047.50;5074324;28;20136;-54
2021/07/09 10:53:11;;;;;;;26.38;20.20;;;;;;;20.48;59.76;102048.63;5073718;28;20048;-50
2021/07/09 10:55:47;;;;;;;23.25;18.10;;;;;;;20.48;58.60;102048.63;5074193;28;20044;-50
2021/07/09 10:58:22;;;;;;;24.55;18.70;;;;;;;20.50;59.08;102038.06;5073136;28;20032;-50
2021/07/09 11:00:58;;;;;;;22.67;19.00;;;;;;;20.55;59.18;102038.81;5073702;28;20060;-51
2021/07/09 11:03:35;;;;;;;25.92;19.08;;;;;;;20.65;58.64;102037.81;5060050;28;20474;-50
2021/07/09 11:06:48;;;;;;;68.03;29.25;;;;;;;20.77;60.69;102029.81;5073611;28;20403;-51
2021/07/09 11:09:21;;;;;;;26.70;19.60;;;;;;;20.86;58.14;102027.16;5065376;28;20055;-50
2021/07/09 11:11:54;;;;;;;25.70;19.67;;;;;;;20.98;58.98;102029.41;5073647;28;20042;-50
2021/07/09 11:14:34;;;;;;;24.05;16.98;;;;;;;21.04;56.83;102028.16;5056446;28;20036;-51
2021/07/09 11:17:21;;;;;;;18.88;13.93;;;;;;;21.05;56.59;102025.06;5060461;28;20467;-50
2021/07/09 11:20:18;;;;;;;17.38;13.43;;;;;;;21.06;55.07;102020.34;5072908;28;20048;-48
2021/07/09 11:22:52;;;;;;;22.10;14.80;;;;;;;21.11;56.16;102022.19;4972024;28;20054;-48